sensor_id;sensor_type;location;lat;lon;timestamp;temperature;humidity
23609;DHT22;11982;50.810;4.442;2022-10-17T00:00:54;14.90;99.90
23609;DHT22;11982;50.810;4.442;2022-10-17T00:03:19;14.90;99.90
23609;DHT22;11982;50.810;4.442;2022-10-17T00:05:47;14.90;99.90
23609;DHT22;11982;50.810;4.442;2022-10-17T00:08:14;14.90;99.90
23609;DHT22;11982;50.810;4.442;2022-10-17T00:10:40;14.90;99.90
23609;DHT22;11982;50.810;4.442;2022-10-17T00:13:07;14.90;99.90
23609;DHT22;11982;50.810;4.442;2022-10-17T00:15:32;15.00;99.90
23609;DHT22;11982;50.810;4.442;2022-10-17T00:17:59;15.00;99.90
23609;DHT22;11982;50.810;4.442;2022-10-17T00:20:25;15.00;99.90
23609;DHT22;11982;50.810;4.442;2022-10-17T00:22:51;15.00;99.90
23609;DHT22;11982;50.810;4.442;2022-10-17T00:25:17;15.10;99.90
23609;DHT22;11982;50.810;4.442;2022-10-17T00:27:43;15.10;99.90
23609;DHT22;11982;50.810;4.442;2022-10-17T00:30:11;15.10;99.90
23609;DHT22;11982;50.810;4.442;2022-10-17T00:32:37;15.10;99.90
23609;DHT22;11982;50.810;4.442;2022-10-17T00:35:03;15.20;99.90
23609;DHT22;11982;50.810;4.442;2022-10-17T00:37:31;15.30;99.90
23609;DHT22;11982;50.810;4.442;2022-10-17T00:39:57;15.30;99.90
23609;DHT22;11982;50.810;4.442;2022-10-17T00:42:23;15.40;99.90
23609;DHT22;11982;50.810;4.442;2022-10-17T00:47:18;15.40;99.90
23609;DHT22;11982;50.810;4.442;2022-10-17T00:49:45;15.50;99.90
23609;DHT22;11982;50.810;4.442;2022-10-17T00:52:14;15.50;99.90
23609;DHT22;11982;50.810;4.442;2022-10-17T00:54:53;15.60;99.90
23609;DHT22;11982;50.810;4.442;2022-10-17T00:57:19;15.60;99.90
23609;DHT22;11982;50.810;4.442;2022-10-17T00:59:48;15.50;99.90
23609;DHT22;11982;50.810;4.442;2022-10-17T01:02:18;15.50;99.90
23609;DHT22;11982;50.810;4.442;2022-10-17T01:04:47;15.60;99.90
23609;DHT22;11982;50.810;4.442;2022-10-17T01:07:13;15.60;99.90
23609;DHT22;11982;50.810;4.442;2022-10-17T01:09:40;15.60;99.90
23609;DHT22;11982;50.810;4.442;2022-10-17T01:15:08;15.70;99.90
23609;DHT22;11982;50.810;4.442;2022-10-17T01:17:54;15.70;99.90
23609;DHT22;11982;50.810;4.442;2022-10-17T01:20:51;15.70;99.90
23609;DHT22;11982;50.810;4.442;2022-10-17T01:31:58;15.80;99.90
23609;DHT22;11982;50.810;4.442;2022-10-17T01:34:40;15.80;99.90
23609;DHT22;11982;50.810;4.442;2022-10-17T01:40:09;15.70;99.90
23609;DHT22;11982;50.810;4.442;2022-10-17T01:45:57;15.80;99.90
23609;DHT22;11982;50.810;4.442;2022-10-17T01:48:29;15.80;99.90
23609;DHT22;11982;50.810;4.442;2022-10-17T01:51:00;15.80;99.90
23609;DHT22;11982;50.810;4.442;2022-10-17T01:53:31;15.80;99.90
23609;DHT22;11982;50.810;4.442;2022-10-17T01:55:59;15.80;99.90
23609;DHT22;11982;50.810;4.442;2022-10-17T01:59:12;15.80;99.90
23609;DHT22;11982;50.810;4.442;2022-10-17T02:01:30;15.80;99.90
23609;DHT22;11982;50.810;4.442;2022-10-17T02:03:57;15.90;99.90
23609;DHT22;11982;50.810;4.442;2022-10-17T02:06:24;15.80;99.90
23609;DHT22;11982;50.810;4.442;2022-10-17T02:08:50;15.90;99.90
23609;DHT22;11982;50.810;4.442;2022-10-17T02:11:24;15.90;99.90
23609;DHT22;11982;50.810;4.442;2022-10-17T02:21:50;16.00;99.90
23609;DHT22;11982;50.810;4.442;2022-10-17T02:24:19;15.90;99.90
23609;DHT22;11982;50.810;4.442;2022-10-17T02:29:37;15.90;99.90
23609;DHT22;11982;50.810;4.442;2022-10-17T02:32:07;15.90;99.90
23609;DHT22;11982;50.810;4.442;2022-10-17T02:34:42;16.00;99.90
23609;DHT22;11982;50.810;4.442;2022-10-17T02:37:12;15.90;99.90
23609;DHT22;11982;50.810;4.442;2022-10-17T02:39:40;16.00;99.90
23609;DHT22;11982;50.810;4.442;2022-10-17T02:42:09;16.00;99.90
23609;DHT22;11982;50.810;4.442;2022-10-17T02:44:38;16.00;99.90
23609;DHT22;11982;50.810;4.442;2022-10-17T02:47:20;16.10;99.90
23609;DHT22;11982;50.810;4.442;2022-10-17T02:49:51;16.10;99.90
23609;DHT22;11982;50.810;4.442;2022-10-17T02:54:51;16.20;99.90
23609;DHT22;11982;50.810;4.442;2022-10-17T02:57:40;16.20;99.90
23609;DHT22;11982;50.810;4.442;2022-10-17T03:00:10;16.30;99.90
23609;DHT22;11982;50.810;4.442;2022-10-17T03:02:53;16.30;99.90
23609;DHT22;11982;50.810;4.442;2022-10-17T03:05:21;16.30;99.90
23609;DHT22;11982;50.810;4.442;2022-10-17T03:07:47;16.40;99.90
23609;DHT22;11982;50.810;4.442;2022-10-17T03:10:14;16.30;99.90
23609;DHT22;11982;50.810;4.442;2022-10-17T03:12:39;16.30;99.90
23609;DHT22;11982;50.810;4.442;2022-10-17T03:15:05;16.30;99.90
23609;DHT22;11982;50.810;4.442;2022-10-17T03:17:31;16.40;99.90
23609;DHT22;11982;50.810;4.442;2022-10-17T03:19:57;16.40;99.90
23609;DHT22;11982;50.810;4.442;2022-10-17T03:22:23;16.40;99.90
23609;DHT22;11982;50.810;4.442;2022-10-17T03:24:49;16.40;99.90
23609;DHT22;11982;50.810;4.442;2022-10-17T03:27:14;16.40;99.90
23609;DHT22;11982;50.810;4.442;2022-10-17T03:29:40;16.40;99.90
23609;DHT22;11982;50.810;4.442;2022-10-17T03:32:06;16.50;99.90
23609;DHT22;11982;50.810;4.442;2022-10-17T03:34:31;16.40;99.90
23609;DHT22;11982;50.810;4.442;2022-10-17T03:36:57;16.30;99.90
23609;DHT22;11982;50.810;4.442;2022-10-17T03:39:23;16.40;99.90
23609;DHT22;11982;50.810;4.442;2022-10-17T03:41:48;16.40;99.90
23609;DHT22;11982;50.810;4.442;2022-10-17T03:44:14;16.30;99.90
23609;DHT22;11982;50.810;4.442;2022-10-17T03:46:40;16.30;99.90
23609;DHT22;11982;50.810;4.442;2022-10-17T03:49:07;16.20;99.90
23609;DHT22;11982;50.810;4.442;2022-10-17T03:51:33;16.10;99.90
23609;DHT22;11982;50.810;4.442;2022-10-17T03:53:59;16.20;99.90
23609;DHT22;11982;50.810;4.442;2022-10-17T03:56:25;16.20;99.90
23609;DHT22;11982;50.810;4.442;2022-10-17T03:58:51;16.20;99.90
23609;DHT22;11982;50.810;4.442;2022-10-17T04:01:17;16.20;99.90
23609;DHT22;11982;50.810;4.442;2022-10-17T04:03:47;16.20;99.90
23609;DHT22;11982;50.810;4.442;2022-10-17T04:06:12;16.30;99.90
23609;DHT22;11982;50.810;4.442;2022-10-17T04:08:38;16.30;99.90
23609;DHT22;11982;50.810;4.442;2022-10-17T04:11:06;16.20;99.90
23609;DHT22;11982;50.810;4.442;2022-10-17T04:13:32;16.20;99.90
23609;DHT22;11982;50.810;4.442;2022-10-17T04:16:05;16.20;99.90
23609;DHT22;11982;50.810;4.442;2022-10-17T04:18:31;16.20;99.90
23609;DHT22;11982;50.810;4.442;2022-10-17T04:20:56;16.20;99.90
23609;DHT22;11982;50.810;4.442;2022-10-17T04:23:22;16.30;99.90
23609;DHT22;11982;50.810;4.442;2022-10-17T04:25:48;16.20;99.90
23609;DHT22;11982;50.810;4.442;2022-10-17T04:28:14;16.20;99.90
23609;DHT22;11982;50.810;4.442;2022-10-17T04:30:40;16.20;99.90
23609;DHT22;11982;50.810;4.442;2022-10-17T04:33:05;16.30;99.90
23609;DHT22;11982;50.810;4.442;2022-10-17T04:35:31;16.20;99.90
23609;DHT22;11982;50.810;4.442;2022-10-17T04:37:56;16.30;99.90
23609;DHT22;11982;50.810;4.442;2022-10-17T04:40:22;16.20;99.90
23609;DHT22;11982;50.810;4.442;2022-10-17T04:42:48;16.10;99.90
23609;DHT22;11982;50.810;4.442;2022-10-17T04:45:13;16.10;99.90
23609;DHT22;11982;50.810;4.442;2022-10-17T04:47:39;16.10;99.90
23609;DHT22;11982;50.810;4.442;2022-10-17T04:50:05;16.10;99.90
23609;DHT22;11982;50.810;4.442;2022-10-17T04:52:30;16.00;99.90
23609;DHT22;11982;50.810;4.442;2022-10-17T04:54:56;16.10;99.90
23609;DHT22;11982;50.810;4.442;2022-10-17T04:57:22;16.10;99.90
23609;DHT22;11982;50.810;4.442;2022-10-17T04:59:49;16.10;99.90
23609;DHT22;11982;50.810;4.442;2022-10-17T05:02:15;16.20;99.90
23609;DHT22;11982;50.810;4.442;2022-10-17T05:04:40;16.20;99.90
23609;DHT22;11982;50.810;4.442;2022-10-17T05:07:06;16.30;99.90
23609;DHT22;11982;50.810;4.442;2022-10-17T05:09:31;16.30;99.90
23609;DHT22;11982;50.810;4.442;2022-10-17T05:11:57;16.30;99.90
23609;DHT22;11982;50.810;4.442;2022-10-17T05:14:22;16.20;99.90
23609;DHT22;11982;50.810;4.442;2022-10-17T05:16:48;16.20;99.90
23609;DHT22;11982;50.810;4.442;2022-10-17T05:19:14;16.30;99.90
23609;DHT22;11982;50.810;4.442;2022-10-17T05:21:39;16.30;99.90
23609;DHT22;11982;50.810;4.442;2022-10-17T05:24:06;16.30;99.90
23609;DHT22;11982;50.810;4.442;2022-10-17T05:26:32;16.30;99.90
23609;DHT22;11982;50.810;4.442;2022-10-17T05:28:59;16.30;99.90
23609;DHT22;11982;50.810;4.442;2022-10-17T05:31:28;16.30;99.90
23609;DHT22;11982;50.810;4.442;2022-10-17T05:33:53;16.40;99.90
23609;DHT22;11982;50.810;4.442;2022-10-17T05:36:19;16.40;99.90
23609;DHT22;11982;50.810;4.442;2022-10-17T05:38:49;16.40;99.90
23609;DHT22;11982;50.810;4.442;2022-10-17T05:41:15;16.50;99.90
23609;DHT22;11982;50.810;4.442;2022-10-17T05:43:41;16.50;99.90
23609;DHT22;11982;50.810;4.442;2022-10-17T05:46:08;16.50;99.90
23609;DHT22;11982;50.810;4.442;2022-10-17T05:48:34;16.50;99.90
23609;DHT22;11982;50.810;4.442;2022-10-17T05:51:05;16.50;99.90
23609;DHT22;11982;50.810;4.442;2022-10-17T05:53:33;16.50;99.90
23609;DHT22;11982;50.810;4.442;2022-10-17T05:56:00;16.60;99.90
23609;DHT22;11982;50.810;4.442;2022-10-17T05:58:27;16.60;99.90
23609;DHT22;11982;50.810;4.442;2022-10-17T06:01:05;16.60;99.90
23609;DHT22;11982;50.810;4.442;2022-10-17T06:03:32;16.60;99.90
23609;DHT22;11982;50.810;4.442;2022-10-17T06:06:11;16.70;99.90
23609;DHT22;11982;50.810;4.442;2022-10-17T06:08:37;16.70;99.90
23609;DHT22;11982;50.810;4.442;2022-10-17T06:11:03;16.70;99.90
23609;DHT22;11982;50.810;4.442;2022-10-17T06:13:29;16.80;99.90
23609;DHT22;11982;50.810;4.442;2022-10-17T06:15:55;16.70;99.90
23609;DHT22;11982;50.810;4.442;2022-10-17T06:18:20;16.80;99.90
23609;DHT22;11982;50.810;4.442;2022-10-17T06:20:46;16.70;99.90
23609;DHT22;11982;50.810;4.442;2022-10-17T06:23:12;16.80;99.90
23609;DHT22;11982;50.810;4.442;2022-10-17T06:25:37;16.70;99.90
23609;DHT22;11982;50.810;4.442;2022-10-17T06:28:03;16.70;99.90
23609;DHT22;11982;50.810;4.442;2022-10-17T06:30:29;16.70;99.90
23609;DHT22;11982;50.810;4.442;2022-10-17T06:32:54;16.70;99.90
23609;DHT22;11982;50.810;4.442;2022-10-17T06:35:20;16.60;99.90
23609;DHT22;11982;50.810;4.442;2022-10-17T06:37:46;16.70;99.90
23609;DHT22;11982;50.810;4.442;2022-10-17T06:40:12;16.70;99.90
23609;DHT22;11982;50.810;4.442;2022-10-17T06:42:39;16.70;99.90
23609;DHT22;11982;50.810;4.442;2022-10-17T06:45:06;16.80;99.90
23609;DHT22;11982;50.810;4.442;2022-10-17T06:47:33;16.80;99.90
23609;DHT22;11982;50.810;4.442;2022-10-17T06:49:59;16.90;99.90
23609;DHT22;11982;50.810;4.442;2022-10-17T06:52:25;16.90;99.90
23609;DHT22;11982;50.810;4.442;2022-10-17T06:54:50;17.00;99.90
23609;DHT22;11982;50.810;4.442;2022-10-17T06:57:16;17.10;99.90
23609;DHT22;11982;50.810;4.442;2022-10-17T06:59:42;17.20;99.90
23609;DHT22;11982;50.810;4.442;2022-10-17T07:02:11;17.30;99.90
23609;DHT22;11982;50.810;4.442;2022-10-17T07:04:37;17.40;99.90
23609;DHT22;11982;50.810;4.442;2022-10-17T07:07:03;17.50;99.90
23609;DHT22;11982;50.810;4.442;2022-10-17T07:09:29;17.60;99.90
23609;DHT22;11982;50.810;4.442;2022-10-17T07:11:55;17.50;99.90
23609;DHT22;11982;50.810;4.442;2022-10-17T07:14:21;17.40;99.90
23609;DHT22;11982;50.810;4.442;2022-10-17T07:16:47;17.30;99.90
23609;DHT22;11982;50.810;4.442;2022-10-17T07:19:13;17.30;99.90
23609;DHT22;11982;50.810;4.442;2022-10-17T07:21:38;17.40;99.90
23609;DHT22;11982;50.810;4.442;2022-10-17T07:24:04;17.40;99.90
23609;DHT22;11982;50.810;4.442;2022-10-17T07:26:31;17.40;99.90
23609;DHT22;11982;50.810;4.442;2022-10-17T07:28:57;17.40;99.90
23609;DHT22;11982;50.810;4.442;2022-10-17T07:31:23;17.30;99.90
23609;DHT22;11982;50.810;4.442;2022-10-17T07:33:49;17.20;99.90
23609;DHT22;11982;50.810;4.442;2022-10-17T07:36:15;17.30;99.90
23609;DHT22;11982;50.810;4.442;2022-10-17T07:38:41;17.30;99.90
23609;DHT22;11982;50.810;4.442;2022-10-17T07:41:08;17.30;99.90
23609;DHT22;11982;50.810;4.442;2022-10-17T07:43:35;17.40;99.90
23609;DHT22;11982;50.810;4.442;2022-10-17T07:46:02;17.50;99.90
23609;DHT22;11982;50.810;4.442;2022-10-17T07:48:29;17.40;99.90
23609;DHT22;11982;50.810;4.442;2022-10-17T07:50:54;17.30;99.90
23609;DHT22;11982;50.810;4.442;2022-10-17T07:53:20;17.10;99.90
23609;DHT22;11982;50.810;4.442;2022-10-17T07:55:45;17.10;99.90
23609;DHT22;11982;50.810;4.442;2022-10-17T07:58:12;17.10;99.90
23609;DHT22;11982;50.810;4.442;2022-10-17T08:00:38;17.00;99.90
23609;DHT22;11982;50.810;4.442;2022-10-17T08:03:05;17.10;99.90
23609;DHT22;11982;50.810;4.442;2022-10-17T08:05:31;17.00;99.90
23609;DHT22;11982;50.810;4.442;2022-10-17T08:07:56;17.30;99.90
23609;DHT22;11982;50.810;4.442;2022-10-17T08:10:23;17.50;99.90
23609;DHT22;11982;50.810;4.442;2022-10-17T08:12:55;17.50;99.90
23609;DHT22;11982;50.810;4.442;2022-10-17T08:15:22;17.30;99.90
23609;DHT22;11982;50.810;4.442;2022-10-17T08:17:48;17.40;99.90
23609;DHT22;11982;50.810;4.442;2022-10-17T08:20:14;17.30;99.90
23609;DHT22;11982;50.810;4.442;2022-10-17T08:22:40;17.20;99.90
23609;DHT22;11982;50.810;4.442;2022-10-17T08:25:06;17.10;99.90
23609;DHT22;11982;50.810;4.442;2022-10-17T08:27:32;17.10;99.90
23609;DHT22;11982;50.810;4.442;2022-10-17T08:29:58;17.10;99.90
23609;DHT22;11982;50.810;4.442;2022-10-17T08:32:27;17.10;99.90
23609;DHT22;11982;50.810;4.442;2022-10-17T08:34:54;17.10;99.90
23609;DHT22;11982;50.810;4.442;2022-10-17T08:37:20;17.20;99.90
23609;DHT22;11982;50.810;4.442;2022-10-17T08:39:46;17.40;99.90
23609;DHT22;11982;50.810;4.442;2022-10-17T08:45:32;17.60;99.90
23609;DHT22;11982;50.810;4.442;2022-10-17T08:48:02;17.50;99.90
23609;DHT22;11982;50.810;4.442;2022-10-17T08:53:30;17.60;99.90
23609;DHT22;11982;50.810;4.442;2022-10-17T08:56:03;17.60;99.90
23609;DHT22;11982;50.810;4.442;2022-10-17T08:58:33;17.70;99.90
23609;DHT22;11982;50.810;4.442;2022-10-17T09:01:08;17.80;99.90
23609;DHT22;11982;50.810;4.442;2022-10-17T09:18:23;17.40;99.90
23609;DHT22;11982;50.810;4.442;2022-10-17T09:23:53;17.30;99.90
23609;DHT22;11982;50.810;4.442;2022-10-17T09:26:20;17.30;99.90
23609;DHT22;11982;50.810;4.442;2022-10-17T09:28:52;17.30;99.90
23609;DHT22;11982;50.810;4.442;2022-10-17T09:31:25;17.30;99.90
23609;DHT22;11982;50.810;4.442;2022-10-17T09:33:55;17.30;99.90
23609;DHT22;11982;50.810;4.442;2022-10-17T09:38:55;17.50;99.90
23609;DHT22;11982;50.810;4.442;2022-10-17T09:41:41;17.50;99.90
23609;DHT22;11982;50.810;4.442;2022-10-17T09:44:13;17.50;99.90
23609;DHT22;11982;50.810;4.442;2022-10-17T09:46:39;17.50;99.90
23609;DHT22;11982;50.810;4.442;2022-10-17T09:49:13;17.50;99.90
23609;DHT22;11982;50.810;4.442;2022-10-17T09:51:40;17.60;99.90
23609;DHT22;11982;50.810;4.442;2022-10-17T09:54:23;17.60;99.90
23609;DHT22;11982;50.810;4.442;2022-10-17T09:57:01;17.60;99.90
23609;DHT22;11982;50.810;4.442;2022-10-17T09:59:36;17.60;99.90
23609;DHT22;11982;50.810;4.442;2022-10-17T10:02:18;17.60;99.90
23609;DHT22;11982;50.810;4.442;2022-10-17T10:05:01;17.60;99.90
23609;DHT22;11982;50.810;4.442;2022-10-17T10:07:33;17.60;99.90
23609;DHT22;11982;50.810;4.442;2022-10-17T10:10:00;17.60;99.90
23609;DHT22;11982;50.810;4.442;2022-10-17T10:12:36;17.60;99.90
23609;DHT22;11982;50.810;4.442;2022-10-17T10:17:59;17.90;99.90
23609;DHT22;11982;50.810;4.442;2022-10-17T10:20:29;18.10;99.90
23609;DHT22;11982;50.810;4.442;2022-10-17T10:23:07;18.20;99.90
23609;DHT22;11982;50.810;4.442;2022-10-17T10:25:35;18.50;99.90
23609;DHT22;11982;50.810;4.442;2022-10-17T10:28:01;18.60;99.90
23609;DHT22;11982;50.810;4.442;2022-10-17T10:30:29;18.60;99.90
23609;DHT22;11982;50.810;4.442;2022-10-17T10:32:56;18.60;99.90
23609;DHT22;11982;50.810;4.442;2022-10-17T10:35:34;18.60;99.90
23609;DHT22;11982;50.810;4.442;2022-10-17T10:38:03;18.70;99.90
23609;DHT22;11982;50.810;4.442;2022-10-17T10:40:36;18.70;99.90
23609;DHT22;11982;50.810;4.442;2022-10-17T10:43:04;18.60;99.90
23609;DHT22;11982;50.810;4.442;2022-10-17T10:48:21;18.70;99.90
23609;DHT22;11982;50.810;4.442;2022-10-17T10:56:37;18.10;99.90
23609;DHT22;11982;50.810;4.442;2022-10-17T11:01:45;17.90;99.90
23609;DHT22;11982;50.810;4.442;2022-10-17T11:07:19;17.80;99.90
23609;DHT22;11982;50.810;4.442;2022-10-17T11:09:58;17.90;99.90
23609;DHT22;11982;50.810;4.442;2022-10-17T11:12:27;17.90;99.90
23609;DHT22;11982;50.810;4.442;2022-10-17T11:15:28;17.80;99.90
23609;DHT22;11982;50.810;4.442;2022-10-17T11:18:04;17.80;99.90
23609;DHT22;11982;50.810;4.442;2022-10-17T11:23:16;17.90;99.90
23609;DHT22;11982;50.810;4.442;2022-10-17T11:25:46;17.80;99.90
23609;DHT22;11982;50.810;4.442;2022-10-17T11:28:18;17.80;99.90
23609;DHT22;11982;50.810;4.442;2022-10-17T11:30:58;17.80;99.90
23609;DHT22;11982;50.810;4.442;2022-10-17T11:33:51;17.70;99.90
23609;DHT22;11982;50.810;4.442;2022-10-17T11:36:20;17.70;99.90
23609;DHT22;11982;50.810;4.442;2022-10-17T11:38:59;17.70;99.90
23609;DHT22;11982;50.810;4.442;2022-10-17T11:44:00;17.60;99.90
23609;DHT22;11982;50.810;4.442;2022-10-17T11:46:28;17.70;99.90
23609;DHT22;11982;50.810;4.442;2022-10-17T11:51:24;18.00;99.90
23609;DHT22;11982;50.810;4.442;2022-10-17T11:56:31;18.20;99.90
23609;DHT22;11982;50.810;4.442;2022-10-17T11:59:26;18.30;99.90
23609;DHT22;11982;50.810;4.442;2022-10-17T12:02:02;18.40;99.90
23609;DHT22;11982;50.810;4.442;2022-10-17T12:07:04;18.40;99.90
23609;DHT22;11982;50.810;4.442;2022-10-17T12:12:33;18.30;99.90
23609;DHT22;11982;50.810;4.442;2022-10-17T12:17:57;18.30;99.90
23609;DHT22;11982;50.810;4.442;2022-10-17T12:20:31;18.30;99.90
23609;DHT22;11982;50.810;4.442;2022-10-17T12:23:01;18.30;99.90
23609;DHT22;11982;50.810;4.442;2022-10-17T12:25:30;18.40;99.90
23609;DHT22;11982;50.810;4.442;2022-10-17T12:28:30;18.40;99.90
23609;DHT22;11982;50.810;4.442;2022-10-17T12:31:02;18.30;99.90
23609;DHT22;11982;50.810;4.442;2022-10-17T12:33:36;18.10;99.90
23609;DHT22;11982;50.810;4.442;2022-10-17T13:00:20;17.90;99.90
23609;DHT22;11982;50.810;4.442;2022-10-17T13:02:46;18.00;99.90
23609;DHT22;11982;50.810;4.442;2022-10-17T13:05:26;17.90;99.90
23609;DHT22;11982;50.810;4.442;2022-10-17T13:07:54;17.90;99.90
23609;DHT22;11982;50.810;4.442;2022-10-17T13:10:27;18.10;99.90
23609;DHT22;11982;50.810;4.442;2022-10-17T13:13:22;18.10;99.90
23609;DHT22;11982;50.810;4.442;2022-10-17T13:15:51;18.10;99.90
23609;DHT22;11982;50.810;4.442;2022-10-17T13:18:20;18.20;99.90
23609;DHT22;11982;50.810;4.442;2022-10-17T13:21:01;18.40;99.90
23609;DHT22;11982;50.810;4.442;2022-10-17T13:23:34;18.40;99.90
23609;DHT22;11982;50.810;4.442;2022-10-17T13:26:04;18.40;99.90
23609;DHT22;11982;50.810;4.442;2022-10-17T13:28:30;18.40;99.90
23609;DHT22;11982;50.810;4.442;2022-10-17T13:30:56;18.30;99.90
23609;DHT22;11982;50.810;4.442;2022-10-17T13:33:48;18.40;99.90
23609;DHT22;11982;50.810;4.442;2022-10-17T13:36:20;18.40;99.90
23609;DHT22;11982;50.810;4.442;2022-10-17T13:38:45;18.50;99.90
23609;DHT22;11982;50.810;4.442;2022-10-17T13:41:12;18.50;99.90
23609;DHT22;11982;50.810;4.442;2022-10-17T13:43:39;18.60;99.90
23609;DHT22;11982;50.810;4.442;2022-10-17T13:46:06;18.60;99.90
23609;DHT22;11982;50.810;4.442;2022-10-17T13:48:35;18.60;99.90
23609;DHT22;11982;50.810;4.442;2022-10-17T13:51:03;18.60;99.90
23609;DHT22;11982;50.810;4.442;2022-10-17T13:53:38;18.60;99.90
23609;DHT22;11982;50.810;4.442;2022-10-17T13:58:44;18.50;99.90
23609;DHT22;11982;50.810;4.442;2022-10-17T14:01:11;18.40;99.90
23609;DHT22;11982;50.810;4.442;2022-10-17T14:03:37;18.40;99.90
23609;DHT22;11982;50.810;4.442;2022-10-17T14:06:23;18.40;99.90
23609;DHT22;11982;50.810;4.442;2022-10-17T14:08:57;18.60;99.90
23609;DHT22;11982;50.810;4.442;2022-10-17T14:11:25;18.40;99.90
23609;DHT22;11982;50.810;4.442;2022-10-17T14:13:52;18.40;99.90
23609;DHT22;11982;50.810;4.442;2022-10-17T14:16:19;18.40;99.90
23609;DHT22;11982;50.810;4.442;2022-10-17T14:18:47;18.40;99.90
23609;DHT22;11982;50.810;4.442;2022-10-17T14:21:22;18.50;99.90
23609;DHT22;11982;50.810;4.442;2022-10-17T14:23:48;18.60;99.90
23609;DHT22;11982;50.810;4.442;2022-10-17T14:26:18;18.60;99.90
23609;DHT22;11982;50.810;4.442;2022-10-17T14:29:05;18.50;99.90
23609;DHT22;11982;50.810;4.442;2022-10-17T14:31:34;18.60;99.90
23609;DHT22;11982;50.810;4.442;2022-10-17T14:34:02;18.70;99.90
23609;DHT22;11982;50.810;4.442;2022-10-17T14:36:37;18.60;99.90
23609;DHT22;11982;50.810;4.442;2022-10-17T14:39:17;18.50;99.90
23609;DHT22;11982;50.810;4.442;2022-10-17T14:41:45;18.50;99.90
23609;DHT22;11982;50.810;4.442;2022-10-17T14:44:26;18.40;99.90
23609;DHT22;11982;50.810;4.442;2022-10-17T14:46:56;18.60;99.90
23609;DHT22;11982;50.810;4.442;2022-10-17T14:49:32;18.70;99.90
23609;DHT22;11982;50.810;4.442;2022-10-17T14:54:36;18.80;99.90
23609;DHT22;11982;50.810;4.442;2022-10-17T14:57:13;18.90;99.90
23609;DHT22;11982;50.810;4.442;2022-10-17T14:59:39;19.20;99.90
23609;DHT22;11982;50.810;4.442;2022-10-17T15:02:05;19.30;99.90
23609;DHT22;11982;50.810;4.442;2022-10-17T15:04:31;19.40;99.90
23609;DHT22;11982;50.810;4.442;2022-10-17T15:06:56;19.50;99.90
23609;DHT22;11982;50.810;4.442;2022-10-17T15:09:22;19.70;99.90
23609;DHT22;11982;50.810;4.442;2022-10-17T15:11:48;19.70;99.90
23609;DHT22;11982;50.810;4.442;2022-10-17T15:14:13;19.60;99.90
23609;DHT22;11982;50.810;4.442;2022-10-17T15:16:39;19.40;99.90
23609;DHT22;11982;50.810;4.442;2022-10-17T15:19:05;19.40;99.90
23609;DHT22;11982;50.810;4.442;2022-10-17T15:21:30;19.50;99.90
23609;DHT22;11982;50.810;4.442;2022-10-17T15:23:56;19.40;99.90
23609;DHT22;11982;50.810;4.442;2022-10-17T15:26:29;19.40;99.90
23609;DHT22;11982;50.810;4.442;2022-10-17T15:28:55;19.60;99.90
23609;DHT22;11982;50.810;4.442;2022-10-17T15:31:23;19.70;99.90
23609;DHT22;11982;50.810;4.442;2022-10-17T15:33:49;19.60;99.90
23609;DHT22;11982;50.810;4.442;2022-10-17T15:36:31;19.60;99.90
23609;DHT22;11982;50.810;4.442;2022-10-17T15:39:00;19.40;99.90
23609;DHT22;11982;50.810;4.442;2022-10-17T15:41:28;19.50;99.90
23609;DHT22;11982;50.810;4.442;2022-10-17T15:43:54;19.30;99.90
23609;DHT22;11982;50.810;4.442;2022-10-17T15:46:28;19.40;99.90
23609;DHT22;11982;50.810;4.442;2022-10-17T15:48:55;19.50;99.90
23609;DHT22;11982;50.810;4.442;2022-10-17T15:51:22;19.30;99.90
23609;DHT22;11982;50.810;4.442;2022-10-17T15:53:47;19.40;99.90
23609;DHT22;11982;50.810;4.442;2022-10-17T15:56:22;19.30;99.90
23609;DHT22;11982;50.810;4.442;2022-10-17T15:58:49;19.30;99.90
23609;DHT22;11982;50.810;4.442;2022-10-17T16:01:21;19.40;99.90
23609;DHT22;11982;50.810;4.442;2022-10-17T16:03:48;19.40;99.90
23609;DHT22;11982;50.810;4.442;2022-10-17T16:06:15;19.40;99.90
23609;DHT22;11982;50.810;4.442;2022-10-17T16:08:41;19.50;99.90
23609;DHT22;11982;50.810;4.442;2022-10-17T16:11:12;19.50;99.90
23609;DHT22;11982;50.810;4.442;2022-10-17T16:13:41;19.40;99.90
23609;DHT22;11982;50.810;4.442;2022-10-17T16:16:10;19.30;99.90
23609;DHT22;11982;50.810;4.442;2022-10-17T16:18:36;19.30;99.90
23609;DHT22;11982;50.810;4.442;2022-10-17T16:21:01;19.30;99.90
23609;DHT22;11982;50.810;4.442;2022-10-17T16:23:27;19.30;99.90
23609;DHT22;11982;50.810;4.442;2022-10-17T16:25:52;19.10;99.90
23609;DHT22;11982;50.810;4.442;2022-10-17T16:28:18;19.00;99.90
23609;DHT22;11982;50.810;4.442;2022-10-17T16:30:43;18.80;99.90
23609;DHT22;11982;50.810;4.442;2022-10-17T16:33:10;19.00;99.90
23609;DHT22;11982;50.810;4.442;2022-10-17T16:35:36;18.90;99.90
23609;DHT22;11982;50.810;4.442;2022-10-17T16:38:03;18.90;99.90
23609;DHT22;11982;50.810;4.442;2022-10-17T16:40:29;18.80;99.90
23609;DHT22;11982;50.810;4.442;2022-10-17T16:42:55;18.70;99.90
23609;DHT22;11982;50.810;4.442;2022-10-17T16:45:21;18.30;99.90
23609;DHT22;11982;50.810;4.442;2022-10-17T16:47:47;18.20;99.90
23609;DHT22;11982;50.810;4.442;2022-10-17T16:50:13;18.20;99.90
23609;DHT22;11982;50.810;4.442;2022-10-17T16:52:39;18.20;99.90
23609;DHT22;11982;50.810;4.442;2022-10-17T16:55:06;18.10;99.90
23609;DHT22;11982;50.810;4.442;2022-10-17T16:57:31;18.10;99.90
23609;DHT22;11982;50.810;4.442;2022-10-17T16:59:57;18.00;99.90
23609;DHT22;11982;50.810;4.442;2022-10-17T17:02:23;17.90;99.90
23609;DHT22;11982;50.810;4.442;2022-10-17T17:04:49;18.00;99.90
23609;DHT22;11982;50.810;4.442;2022-10-17T17:07:14;17.70;99.90
23609;DHT22;11982;50.810;4.442;2022-10-17T17:09:42;17.60;99.90
23609;DHT22;11982;50.810;4.442;2022-10-17T17:12:08;17.50;99.90
23609;DHT22;11982;50.810;4.442;2022-10-17T17:14:33;17.40;99.90
23609;DHT22;11982;50.810;4.442;2022-10-17T17:16:59;17.30;99.90
23609;DHT22;11982;50.810;4.442;2022-10-17T17:19:25;17.30;99.90
23609;DHT22;11982;50.810;4.442;2022-10-17T17:21:50;17.20;99.90
23609;DHT22;11982;50.810;4.442;2022-10-17T17:24:17;17.20;99.90
23609;DHT22;11982;50.810;4.442;2022-10-17T17:26:48;17.10;99.90
23609;DHT22;11982;50.810;4.442;2022-10-17T17:29:14;17.10;99.90
23609;DHT22;11982;50.810;4.442;2022-10-17T17:31:40;17.00;99.90
23609;DHT22;11982;50.810;4.442;2022-10-17T17:34:06;16.90;99.90
23609;DHT22;11982;50.810;4.442;2022-10-17T17:36:34;17.00;99.90
23609;DHT22;11982;50.810;4.442;2022-10-17T17:39:03;17.00;99.90
23609;DHT22;11982;50.810;4.442;2022-10-17T17:41:29;16.90;99.90
23609;DHT22;11982;50.810;4.442;2022-10-17T17:43:55;16.90;99.90
23609;DHT22;11982;50.810;4.442;2022-10-17T17:46:22;16.90;99.90